sensor_id;sensor_type;location;lat;lon;timestamp;P1;durP1;ratioP1;P2;durP2;ratioP2
17173;SDS011;8702;48.130;-1.696;2022-08-21T00:02:17;12.80;;;3.97;;
17173;SDS011;8702;48.130;-1.696;2022-08-21T00:04:46;10.40;;;4.10;;
17173;SDS011;8702;48.130;-1.696;2022-08-21T00:07:15;9.77;;;3.43;;
17173;SDS011;8702;48.130;-1.696;2022-08-21T00:09:43;11.70;;;3.53;;
17173;SDS011;8702;48.130;-1.696;2022-08-21T00:12:10;9.43;;;3.40;;
17173;SDS011;8702;48.130;-1.696;2022-08-21T00:14:38;10.23;;;3.60;;
17173;SDS011;8702;48.130;-1.696;2022-08-21T00:17:05;9.50;;;3.17;;
17173;SDS011;8702;48.130;-1.696;2022-08-21T00:19:34;10.30;;;3.00;;
17173;SDS011;8702;48.130;-1.696;2022-08-21T00:22:01;9.37;;;2.70;;
17173;SDS011;8702;48.130;-1.696;2022-08-21T00:24:28;11.37;;;3.20;;
17173;SDS011;8702;48.130;-1.696;2022-08-21T00:26:55;12.00;;;3.00;;
17173;SDS011;8702;48.130;-1.696;2022-08-21T00:29:22;12.90;;;3.23;;
17173;SDS011;8702;48.130;-1.696;2022-08-21T00:31:49;12.63;;;2.83;;
17173;SDS011;8702;48.130;-1.696;2022-08-21T00:34:16;11.80;;;3.30;;
17173;SDS011;8702;48.130;-1.696;2022-08-21T00:36:44;13.00;;;3.30;;
17173;SDS011;8702;48.130;-1.696;2022-08-21T00:39:11;9.47;;;2.83;;
17173;SDS011;8702;48.130;-1.696;2022-08-21T00:41:38;13.80;;;3.50;;
17173;SDS011;8702;48.130;-1.696;2022-08-21T00:44:06;13.23;;;3.43;;
17173;SDS011;8702;48.130;-1.696;2022-08-21T00:46:36;8.37;;;2.87;;
17173;SDS011;8702;48.130;-1.696;2022-08-21T00:49:04;9.10;;;2.53;;
17173;SDS011;8702;48.130;-1.696;2022-08-21T00:51:33;10.87;;;3.50;;
17173;SDS011;8702;48.130;-1.696;2022-08-21T00:54:05;13.27;;;3.37;;
17173;SDS011;8702;48.130;-1.696;2022-08-21T00:56:33;9.97;;;3.03;;
17173;SDS011;8702;48.130;-1.696;2022-08-21T00:59:02;8.30;;;2.70;;
17173;SDS011;8702;48.130;-1.696;2022-08-21T01:01:29;12.50;;;3.40;;
17173;SDS011;8702;48.130;-1.696;2022-08-21T01:03:56;9.10;;;2.70;;
17173;SDS011;8702;48.130;-1.696;2022-08-21T01:06:23;11.00;;;3.30;;
17173;SDS011;8702;48.130;-1.696;2022-08-21T01:08:50;10.60;;;3.13;;
17173;SDS011;8702;48.130;-1.696;2022-08-21T01:11:19;9.60;;;3.03;;
17173;SDS011;8702;48.130;-1.696;2022-08-21T01:13:46;16.03;;;3.23;;
17173;SDS011;8702;48.130;-1.696;2022-08-21T01:16:15;11.07;;;2.90;;
17173;SDS011;8702;48.130;-1.696;2022-08-21T01:18:44;8.33;;;3.13;;
17173;SDS011;8702;48.130;-1.696;2022-08-21T01:21:14;11.60;;;2.93;;
17173;SDS011;8702;48.130;-1.696;2022-08-21T01:23:44;11.87;;;3.37;;
17173;SDS011;8702;48.130;-1.696;2022-08-21T01:26:13;9.93;;;3.20;;
17173;SDS011;8702;48.130;-1.696;2022-08-21T01:28:44;10.07;;;3.20;;
17173;SDS011;8702;48.130;-1.696;2022-08-21T01:31:15;11.03;;;3.10;;
17173;SDS011;8702;48.130;-1.696;2022-08-21T01:33:46;10.33;;;2.83;;
17173;SDS011;8702;48.130;-1.696;2022-08-21T01:36:14;7.97;;;2.80;;
17173;SDS011;8702;48.130;-1.696;2022-08-21T01:38:41;12.20;;;2.63;;
17173;SDS011;8702;48.130;-1.696;2022-08-21T01:41:08;8.33;;;2.63;;
17173;SDS011;8702;48.130;-1.696;2022-08-21T01:43:35;7.53;;;2.93;;
17173;SDS011;8702;48.130;-1.696;2022-08-21T01:46:02;10.47;;;2.97;;
17173;SDS011;8702;48.130;-1.696;2022-08-21T01:48:30;8.97;;;3.07;;
17173;SDS011;8702;48.130;-1.696;2022-08-21T01:50:57;8.83;;;2.90;;
17173;SDS011;8702;48.130;-1.696;2022-08-21T01:53:26;10.67;;;3.47;;
17173;SDS011;8702;48.130;-1.696;2022-08-21T01:55:53;9.83;;;2.53;;
17173;SDS011;8702;48.130;-1.696;2022-08-21T01:58:20;10.70;;;3.00;;
17173;SDS011;8702;48.130;-1.696;2022-08-21T02:00:47;13.47;;;3.33;;
17173;SDS011;8702;48.130;-1.696;2022-08-21T02:03:14;7.90;;;3.40;;
17173;SDS011;8702;48.130;-1.696;2022-08-21T02:05:41;10.17;;;2.80;;
17173;SDS011;8702;48.130;-1.696;2022-08-21T02:08:08;9.57;;;3.17;;
17173;SDS011;8702;48.130;-1.696;2022-08-21T02:10:36;9.13;;;2.97;;
17173;SDS011;8702;48.130;-1.696;2022-08-21T02:13:04;9.03;;;2.87;;
17173;SDS011;8702;48.130;-1.696;2022-08-21T02:15:32;8.33;;;2.97;;
17173;SDS011;8702;48.130;-1.696;2022-08-21T02:18:00;7.10;;;2.70;;
17173;SDS011;8702;48.130;-1.696;2022-08-21T02:20:29;10.83;;;2.90;;
17173;SDS011;8702;48.130;-1.696;2022-08-21T02:22:59;11.33;;;3.30;;
17173;SDS011;8702;48.130;-1.696;2022-08-21T02:25:27;10.93;;;3.67;;
17173;SDS011;8702;48.130;-1.696;2022-08-21T02:27:56;8.33;;;3.00;;
17173;SDS011;8702;48.130;-1.696;2022-08-21T02:30:26;8.00;;;3.10;;
17173;SDS011;8702;48.130;-1.696;2022-08-21T02:32:55;9.17;;;3.10;;
17173;SDS011;8702;48.130;-1.696;2022-08-21T02:35:22;11.27;;;2.80;;
17173;SDS011;8702;48.130;-1.696;2022-08-21T02:37:51;8.30;;;3.20;;
17173;SDS011;8702;48.130;-1.696;2022-08-21T02:40:20;9.87;;;3.00;;
17173;SDS011;8702;48.130;-1.696;2022-08-21T02:42:48;10.67;;;3.37;;
17173;SDS011;8702;48.130;-1.696;2022-08-21T02:45:17;12.90;;;3.60;;
17173;SDS011;8702;48.130;-1.696;2022-08-21T02:47:48;12.27;;;3.20;;
17173;SDS011;8702;48.130;-1.696;2022-08-21T02:50:17;10.30;;;3.03;;
17173;SDS011;8702;48.130;-1.696;2022-08-21T02:52:46;11.00;;;3.00;;
17173;SDS011;8702;48.130;-1.696;2022-08-21T02:55:14;11.37;;;3.07;;
17173;SDS011;8702;48.130;-1.696;2022-08-21T02:57:41;9.93;;;2.97;;
17173;SDS011;8702;48.130;-1.696;2022-08-21T03:00:08;8.50;;;2.63;;
17173;SDS011;8702;48.130;-1.696;2022-08-21T03:02:38;13.20;;;3.67;;
17173;SDS011;8702;48.130;-1.696;2022-08-21T03:05:05;12.37;;;3.27;;
17173;SDS011;8702;48.130;-1.696;2022-08-21T03:07:33;10.50;;;3.70;;
17173;SDS011;8702;48.130;-1.696;2022-08-21T03:10:00;12.43;;;3.13;;
17173;SDS011;8702;48.130;-1.696;2022-08-21T03:12:28;11.33;;;3.17;;
17173;SDS011;8702;48.130;-1.696;2022-08-21T03:14:55;13.40;;;3.50;;
17173;SDS011;8702;48.130;-1.696;2022-08-21T03:17:22;9.87;;;3.07;;
17173;SDS011;8702;48.130;-1.696;2022-08-21T03:19:50;9.80;;;3.37;;
17173;SDS011;8702;48.130;-1.696;2022-08-21T03:22:17;12.33;;;2.93;;
17173;SDS011;8702;48.130;-1.696;2022-08-21T03:24:44;7.07;;;2.67;;
17173;SDS011;8702;48.130;-1.696;2022-08-21T03:27:11;10.53;;;2.93;;
17173;SDS011;8702;48.130;-1.696;2022-08-21T03:29:38;8.70;;;3.10;;
17173;SDS011;8702;48.130;-1.696;2022-08-21T03:32:05;11.10;;;3.10;;
17173;SDS011;8702;48.130;-1.696;2022-08-21T03:34:34;11.03;;;3.43;;
17173;SDS011;8702;48.130;-1.696;2022-08-21T03:37:03;11.53;;;3.40;;
17173;SDS011;8702;48.130;-1.696;2022-08-21T03:39:31;11.33;;;3.47;;
17173;SDS011;8702;48.130;-1.696;2022-08-21T03:41:59;13.23;;;3.53;;
17173;SDS011;8702;48.130;-1.696;2022-08-21T03:44:28;11.83;;;3.30;;
17173;SDS011;8702;48.130;-1.696;2022-08-21T03:46:55;10.23;;;3.17;;
17173;SDS011;8702;48.130;-1.696;2022-08-21T03:49:23;11.50;;;3.13;;
17173;SDS011;8702;48.130;-1.696;2022-08-21T03:51:50;8.60;;;3.20;;
17173;SDS011;8702;48.130;-1.696;2022-08-21T03:54:18;8.23;;;3.13;;
17173;SDS011;8702;48.130;-1.696;2022-08-21T03:56:45;10.27;;;3.10;;
17173;SDS011;8702;48.130;-1.696;2022-08-21T03:59:13;9.20;;;3.27;;
17173;SDS011;8702;48.130;-1.696;2022-08-21T04:01:40;15.17;;;3.20;;
17173;SDS011;8702;48.130;-1.696;2022-08-21T04:04:17;10.33;;;3.20;;
17173;SDS011;8702;48.130;-1.696;2022-08-21T04:06:44;9.90;;;3.47;;
17173;SDS011;8702;48.130;-1.696;2022-08-21T04:09:11;9.10;;;2.90;;
17173;SDS011;8702;48.130;-1.696;2022-08-21T04:11:40;9.87;;;3.30;;
17173;SDS011;8702;48.130;-1.696;2022-08-21T04:14:07;13.07;;;3.27;;
17173;SDS011;8702;48.130;-1.696;2022-08-21T04:16:34;10.10;;;2.93;;
17173;SDS011;8702;48.130;-1.696;2022-08-21T04:19:01;11.30;;;3.33;;
17173;SDS011;8702;48.130;-1.696;2022-08-21T04:21:28;10.77;;;3.23;;
17173;SDS011;8702;48.130;-1.696;2022-08-21T04:23:56;13.10;;;3.80;;
17173;SDS011;8702;48.130;-1.696;2022-08-21T04:26:24;16.57;;;3.80;;
17173;SDS011;8702;48.130;-1.696;2022-08-21T04:28:52;10.77;;;3.67;;
17173;SDS011;8702;48.130;-1.696;2022-08-21T04:31:22;9.57;;;3.03;;
17173;SDS011;8702;48.130;-1.696;2022-08-21T04:33:49;13.00;;;3.27;;
17173;SDS011;8702;48.130;-1.696;2022-08-21T04:36:17;13.80;;;3.50;;
17173;SDS011;8702;48.130;-1.696;2022-08-21T04:38:44;10.97;;;3.33;;
17173;SDS011;8702;48.130;-1.696;2022-08-21T04:41:11;7.47;;;2.90;;
17173;SDS011;8702;48.130;-1.696;2022-08-21T04:43:38;11.00;;;4.00;;
17173;SDS011;8702;48.130;-1.696;2022-08-21T04:46:07;10.60;;;3.83;;
17173;SDS011;8702;48.130;-1.696;2022-08-21T04:48:34;10.03;;;3.57;;
17173;SDS011;8702;48.130;-1.696;2022-08-21T04:51:03;9.43;;;3.37;;
17173;SDS011;8702;48.130;-1.696;2022-08-21T04:53:34;11.40;;;3.70;;
17173;SDS011;8702;48.130;-1.696;2022-08-21T04:56:07;11.53;;;3.50;;
17173;SDS011;8702;48.130;-1.696;2022-08-21T04:58:37;15.07;;;4.00;;
17173;SDS011;8702;48.130;-1.696;2022-08-21T05:01:08;10.63;;;3.37;;
17173;SDS011;8702;48.130;-1.696;2022-08-21T05:03:39;12.00;;;3.57;;
17173;SDS011;8702;48.130;-1.696;2022-08-21T05:06:07;14.90;;;3.83;;
17173;SDS011;8702;48.130;-1.696;2022-08-21T05:08:37;13.27;;;3.73;;
17173;SDS011;8702;48.130;-1.696;2022-08-21T05:11:05;8.90;;;2.57;;
17173;SDS011;8702;48.130;-1.696;2022-08-21T05:13:33;10.53;;;3.17;;
17173;SDS011;8702;48.130;-1.696;2022-08-21T05:16:00;9.17;;;3.90;;
17173;SDS011;8702;48.130;-1.696;2022-08-21T05:18:28;15.60;;;3.73;;
17173;SDS011;8702;48.130;-1.696;2022-08-21T05:20:55;9.43;;;3.77;;
17173;SDS011;8702;48.130;-1.696;2022-08-21T05:23:22;10.73;;;3.57;;
17173;SDS011;8702;48.130;-1.696;2022-08-21T05:25:49;11.57;;;4.00;;
17173;SDS011;8702;48.130;-1.696;2022-08-21T05:28:18;9.90;;;3.10;;
17173;SDS011;8702;48.130;-1.696;2022-08-21T05:30:45;9.83;;;3.67;;
17173;SDS011;8702;48.130;-1.696;2022-08-21T05:33:12;11.87;;;3.50;;
17173;SDS011;8702;48.130;-1.696;2022-08-21T05:35:40;13.37;;;4.37;;
17173;SDS011;8702;48.130;-1.696;2022-08-21T05:38:07;8.10;;;3.40;;
17173;SDS011;8702;48.130;-1.696;2022-08-21T05:40:36;11.13;;;3.57;;
17173;SDS011;8702;48.130;-1.696;2022-08-21T05:43:03;12.67;;;3.80;;
17173;SDS011;8702;48.130;-1.696;2022-08-21T05:45:31;15.17;;;3.87;;
17173;SDS011;8702;48.130;-1.696;2022-08-21T05:48:04;10.93;;;3.17;;
17173;SDS011;8702;48.130;-1.696;2022-08-21T05:50:32;10.00;;;3.43;;
17173;SDS011;8702;48.130;-1.696;2022-08-21T05:53:01;8.63;;;3.30;;
17173;SDS011;8702;48.130;-1.696;2022-08-21T05:55:28;12.23;;;3.50;;
17173;SDS011;8702;48.130;-1.696;2022-08-21T05:57:55;11.30;;;3.67;;
17173;SDS011;8702;48.130;-1.696;2022-08-21T06:00:22;12.93;;;3.73;;
17173;SDS011;8702;48.130;-1.696;2022-08-21T06:02:49;8.97;;;2.90;;
17173;SDS011;8702;48.130;-1.696;2022-08-21T06:05:17;10.90;;;3.57;;
17173;SDS011;8702;48.130;-1.696;2022-08-21T06:07:44;14.70;;;3.53;;
17173;SDS011;8702;48.130;-1.696;2022-08-21T06:10:12;8.50;;;2.87;;
17173;SDS011;8702;48.130;-1.696;2022-08-21T06:12:39;7.47;;;3.07;;
17173;SDS011;8702;48.130;-1.696;2022-08-21T06:15:07;11.07;;;3.70;;
17173;SDS011;8702;48.130;-1.696;2022-08-21T06:17:34;11.97;;;3.80;;
17173;SDS011;8702;48.130;-1.696;2022-08-21T06:20:01;12.30;;;3.73;;
17173;SDS011;8702;48.130;-1.696;2022-08-21T06:22:29;10.53;;;3.80;;
17173;SDS011;8702;48.130;-1.696;2022-08-21T06:24:57;11.83;;;3.30;;
17173;SDS011;8702;48.130;-1.696;2022-08-21T06:27:25;8.97;;;3.23;;
17173;SDS011;8702;48.130;-1.696;2022-08-21T06:29:52;10.17;;;3.93;;
17173;SDS011;8702;48.130;-1.696;2022-08-21T06:32:21;12.80;;;4.43;;
17173;SDS011;8702;48.130;-1.696;2022-08-21T06:34:48;8.77;;;3.77;;
17173;SDS011;8702;48.130;-1.696;2022-08-21T06:37:15;13.07;;;4.33;;
17173;SDS011;8702;48.130;-1.696;2022-08-21T06:39:42;12.10;;;3.83;;
17173;SDS011;8702;48.130;-1.696;2022-08-21T06:42:12;11.50;;;3.97;;
17173;SDS011;8702;48.130;-1.696;2022-08-21T06:44:42;11.47;;;3.87;;
17173;SDS011;8702;48.130;-1.696;2022-08-21T06:47:09;15.30;;;4.30;;
17173;SDS011;8702;48.130;-1.696;2022-08-21T06:49:36;8.77;;;3.30;;
17173;SDS011;8702;48.130;-1.696;2022-08-21T06:52:03;9.83;;;3.20;;
17173;SDS011;8702;48.130;-1.696;2022-08-21T06:54:34;13.63;;;3.50;;
17173;SDS011;8702;48.130;-1.696;2022-08-21T06:57:01;11.53;;;3.53;;
17173;SDS011;8702;48.130;-1.696;2022-08-21T06:59:28;12.73;;;4.07;;
17173;SDS011;8702;48.130;-1.696;2022-08-21T07:01:56;11.17;;;3.10;;
17173;SDS011;8702;48.130;-1.696;2022-08-21T07:04:23;14.60;;;3.73;;
17173;SDS011;8702;48.130;-1.696;2022-08-21T07:06:50;13.70;;;4.13;;
17173;SDS011;8702;48.130;-1.696;2022-08-21T07:09:17;11.20;;;3.57;;
17173;SDS011;8702;48.130;-1.696;2022-08-21T07:11:44;13.47;;;3.90;;
17173;SDS011;8702;48.130;-1.696;2022-08-21T07:14:16;7.90;;;3.00;;
17173;SDS011;8702;48.130;-1.696;2022-08-21T07:16:43;11.30;;;3.47;;
17173;SDS011;8702;48.130;-1.696;2022-08-21T07:19:12;9.83;;;3.10;;
17173;SDS011;8702;48.130;-1.696;2022-08-21T07:21:39;15.43;;;3.70;;
17173;SDS011;8702;48.130;-1.696;2022-08-21T07:24:06;9.33;;;3.10;;
17173;SDS011;8702;48.130;-1.696;2022-08-21T07:26:33;10.47;;;3.83;;
17173;SDS011;8702;48.130;-1.696;2022-08-21T07:29:01;11.80;;;3.40;;
17173;SDS011;8702;48.130;-1.696;2022-08-21T07:31:28;9.77;;;3.60;;
17173;SDS011;8702;48.130;-1.696;2022-08-21T07:33:56;12.40;;;3.60;;
17173;SDS011;8702;48.130;-1.696;2022-08-21T07:36:25;12.27;;;3.87;;
17173;SDS011;8702;48.130;-1.696;2022-08-21T07:38:52;9.60;;;3.60;;
17173;SDS011;8702;48.130;-1.696;2022-08-21T07:41:20;14.30;;;3.80;;
17173;SDS011;8702;48.130;-1.696;2022-08-21T07:43:48;7.87;;;2.93;;
17173;SDS011;8702;48.130;-1.696;2022-08-21T07:46:15;10.53;;;3.13;;
17173;SDS011;8702;48.130;-1.696;2022-08-21T07:48:43;9.10;;;3.50;;
17173;SDS011;8702;48.130;-1.696;2022-08-21T07:51:11;13.13;;;3.50;;
17173;SDS011;8702;48.130;-1.696;2022-08-21T07:53:41;10.83;;;3.33;;
17173;SDS011;8702;48.130;-1.696;2022-08-21T07:56:13;14.00;;;3.40;;
17173;SDS011;8702;48.130;-1.696;2022-08-21T07:58:40;13.77;;;3.60;;
17173;SDS011;8702;48.130;-1.696;2022-08-21T08:01:07;9.70;;;3.10;;
17173;SDS011;8702;48.130;-1.696;2022-08-21T08:03:34;9.97;;;3.17;;
17173;SDS011;8702;48.130;-1.696;2022-08-21T08:06:02;11.57;;;3.53;;
17173;SDS011;8702;48.130;-1.696;2022-08-21T08:08:30;11.27;;;3.03;;
17173;SDS011;8702;48.130;-1.696;2022-08-21T08:10:59;9.40;;;3.03;;
17173;SDS011;8702;48.130;-1.696;2022-08-21T08:13:26;11.43;;;3.33;;
17173;SDS011;8702;48.130;-1.696;2022-08-21T08:15:54;11.90;;;3.60;;
17173;SDS011;8702;48.130;-1.696;2022-08-21T08:18:21;11.47;;;3.67;;
17173;SDS011;8702;48.130;-1.696;2022-08-21T08:20:48;12.73;;;3.80;;
17173;SDS011;8702;48.130;-1.696;2022-08-21T08:23:15;13.60;;;4.07;;
17173;SDS011;8702;48.130;-1.696;2022-08-21T08:25:42;14.63;;;4.10;;
17173;SDS011;8702;48.130;-1.696;2022-08-21T08:28:10;11.20;;;3.87;;
17173;SDS011;8702;48.130;-1.696;2022-08-21T08:30:37;11.40;;;3.77;;
17173;SDS011;8702;48.130;-1.696;2022-08-21T08:33:04;11.70;;;3.50;;
17173;SDS011;8702;48.130;-1.696;2022-08-21T08:35:31;11.27;;;3.60;;
17173;SDS011;8702;48.130;-1.696;2022-08-21T08:37:58;10.73;;;3.67;;
17173;SDS011;8702;48.130;-1.696;2022-08-21T08:40:27;14.43;;;3.60;;
17173;SDS011;8702;48.130;-1.696;2022-08-21T08:43:00;9.63;;;3.30;;
17173;SDS011;8702;48.130;-1.696;2022-08-21T08:45:29;9.20;;;3.30;;
17173;SDS011;8702;48.130;-1.696;2022-08-21T08:48:01;13.00;;;3.77;;
17173;SDS011;8702;48.130;-1.696;2022-08-21T08:50:36;13.87;;;3.17;;
17173;SDS011;8702;48.130;-1.696;2022-08-21T08:53:07;14.13;;;3.20;;
17173;SDS011;8702;48.130;-1.696;2022-08-21T08:55:41;9.80;;;3.03;;
17173;SDS011;8702;48.130;-1.696;2022-08-21T08:58:10;10.47;;;3.10;;
17173;SDS011;8702;48.130;-1.696;2022-08-21T09:00:44;10.80;;;3.03;;
17173;SDS011;8702;48.130;-1.696;2022-08-21T09:03:16;9.77;;;3.17;;
17173;SDS011;8702;48.130;-1.696;2022-08-21T09:05:44;7.07;;;2.47;;
17173;SDS011;8702;48.130;-1.696;2022-08-21T09:08:23;8.43;;;2.73;;
17173;SDS011;8702;48.130;-1.696;2022-08-21T09:11:01;9.50;;;2.93;;
17173;SDS011;8702;48.130;-1.696;2022-08-21T09:13:38;10.00;;;2.93;;
17173;SDS011;8702;48.130;-1.696;2022-08-21T09:16:18;9.07;;;2.90;;
17173;SDS011;8702;48.130;-1.696;2022-08-21T09:18:54;9.40;;;2.73;;
17173;SDS011;8702;48.130;-1.696;2022-08-21T09:21:31;8.83;;;2.80;;
17173;SDS011;8702;48.130;-1.696;2022-08-21T09:24:10;6.27;;;2.27;;
17173;SDS011;8702;48.130;-1.696;2022-08-21T09:26:50;8.53;;;2.47;;
17173;SDS011;8702;48.130;-1.696;2022-08-21T09:29:24;8.87;;;2.50;;
17173;SDS011;8702;48.130;-1.696;2022-08-21T09:31:55;7.33;;;2.33;;
17173;SDS011;8702;48.130;-1.696;2022-08-21T09:34:26;6.97;;;2.63;;
17173;SDS011;8702;48.130;-1.696;2022-08-21T09:36:54;5.27;;;2.10;;
17173;SDS011;8702;48.130;-1.696;2022-08-21T09:39:23;5.10;;;1.97;;
17173;SDS011;8702;48.130;-1.696;2022-08-21T09:41:55;6.63;;;2.03;;
17173;SDS011;8702;48.130;-1.696;2022-08-21T09:44:24;6.37;;;2.27;;
17173;SDS011;8702;48.130;-1.696;2022-08-21T09:46:53;6.33;;;1.83;;
17173;SDS011;8702;48.130;-1.696;2022-08-21T09:49:28;6.20;;;2.13;;
17173;SDS011;8702;48.130;-1.696;2022-08-21T09:51:56;7.33;;;2.30;;
17173;SDS011;8702;48.130;-1.696;2022-08-21T09:54:26;7.13;;;2.03;;
17173;SDS011;8702;48.130;-1.696;2022-08-21T09:56:57;4.57;;;2.30;;
17173;SDS011;8702;48.130;-1.696;2022-08-21T09:59:42;4.77;;;1.90;;
17173;SDS011;8702;48.130;-1.696;2022-08-21T10:02:23;8.63;;;2.20;;
17173;SDS011;8702;48.130;-1.696;2022-08-21T10:04:54;4.90;;;1.93;;
17173;SDS011;8702;48.130;-1.696;2022-08-21T10:07:23;9.53;;;2.27;;
17173;SDS011;8702;48.130;-1.696;2022-08-21T10:10:02;5.57;;;1.97;;
17173;SDS011;8702;48.130;-1.696;2022-08-21T10:12:33;6.07;;;2.10;;
17173;SDS011;8702;48.130;-1.696;2022-08-21T10:15:09;5.30;;;2.03;;
17173;SDS011;8702;48.130;-1.696;2022-08-21T10:17:47;8.77;;;2.00;;
17173;SDS011;8702;48.130;-1.696;2022-08-21T10:20:25;7.03;;;2.10;;
17173;SDS011;8702;48.130;-1.696;2022-08-21T10:23:01;5.47;;;1.70;;
17173;SDS011;8702;48.130;-1.696;2022-08-21T10:25:35;8.70;;;2.03;;
17173;SDS011;8702;48.130;-1.696;2022-08-21T10:28:10;6.23;;;1.83;;
17173;SDS011;8702;48.130;-1.696;2022-08-21T10:30:44;5.60;;;1.67;;
17173;SDS011;8702;48.130;-1.696;2022-08-21T10:33:30;4.13;;;1.60;;
17173;SDS011;8702;48.130;-1.696;2022-08-21T10:36:06;5.10;;;1.40;;
17173;SDS011;8702;48.130;-1.696;2022-08-21T10:38:46;4.50;;;1.43;;
17173;SDS011;8702;48.130;-1.696;2022-08-21T10:41:23;5.67;;;1.90;;
17173;SDS011;8702;48.130;-1.696;2022-08-21T10:43:59;3.80;;;1.83;;
17173;SDS011;8702;48.130;-1.696;2022-08-21T10:46:37;4.77;;;1.93;;
17173;SDS011;8702;48.130;-1.696;2022-08-21T10:49:17;3.63;;;1.53;;
17173;SDS011;8702;48.130;-1.696;2022-08-21T10:51:53;5.30;;;1.70;;
17173;SDS011;8702;48.130;-1.696;2022-08-21T10:54:26;5.50;;;1.87;;
17173;SDS011;8702;48.130;-1.696;2022-08-21T10:57:04;4.90;;;2.17;;
17173;SDS011;8702;48.130;-1.696;2022-08-21T10:59:38;5.93;;;2.00;;
17173;SDS011;8702;48.130;-1.696;2022-08-21T11:02:11;5.43;;;1.90;;
17173;SDS011;8702;48.130;-1.696;2022-08-21T11:04:48;5.03;;;2.60;;
17173;SDS011;8702;48.130;-1.696;2022-08-21T11:07:21;8.20;;;2.30;;
17173;SDS011;8702;48.130;-1.696;2022-08-21T11:09:54;7.30;;;2.47;;
17173;SDS011;8702;48.130;-1.696;2022-08-21T11:12:25;9.50;;;2.70;;
17173;SDS011;8702;48.130;-1.696;2022-08-21T11:15:00;8.97;;;2.70;;
17173;SDS011;8702;48.130;-1.696;2022-08-21T11:17:34;6.53;;;2.57;;
17173;SDS011;8702;48.130;-1.696;2022-08-21T11:20:08;7.33;;;2.33;;
17173;SDS011;8702;48.130;-1.696;2022-08-21T11:22:40;6.50;;;2.30;;
17173;SDS011;8702;48.130;-1.696;2022-08-21T11:25:13;5.90;;;2.07;;
17173;SDS011;8702;48.130;-1.696;2022-08-21T11:27:47;9.47;;;2.40;;
17173;SDS011;8702;48.130;-1.696;2022-08-21T11:30:18;8.63;;;2.50;;
17173;SDS011;8702;48.130;-1.696;2022-08-21T11:32:48;3.97;;;1.70;;
17173;SDS011;8702;48.130;-1.696;2022-08-21T11:35:32;5.83;;;1.97;;
17173;SDS011;8702;48.130;-1.696;2022-08-21T11:38:08;6.20;;;1.90;;
17173;SDS011;8702;48.130;-1.696;2022-08-21T11:40:54;7.20;;;2.33;;
17173;SDS011;8702;48.130;-1.696;2022-08-21T11:43:32;6.87;;;1.87;;
17173;SDS011;8702;48.130;-1.696;2022-08-21T11:46:09;4.70;;;1.77;;
17173;SDS011;8702;48.130;-1.696;2022-08-21T11:48:44;5.40;;;2.23;;
17173;SDS011;8702;48.130;-1.696;2022-08-21T11:51:25;5.67;;;1.90;;
17173;SDS011;8702;48.130;-1.696;2022-08-21T11:54:02;4.63;;;2.33;;
17173;SDS011;8702;48.130;-1.696;2022-08-21T11:56:33;7.00;;;2.60;;
17173;SDS011;8702;48.130;-1.696;2022-08-21T11:59:08;9.47;;;2.17;;
17173;SDS011;8702;48.130;-1.696;2022-08-21T12:01:39;6.27;;;1.83;;
17173;SDS011;8702;48.130;-1.696;2022-08-21T12:04:16;8.27;;;2.23;;
17173;SDS011;8702;48.130;-1.696;2022-08-21T12:06:47;8.00;;;2.50;;
17173;SDS011;8702;48.130;-1.696;2022-08-21T12:09:28;9.33;;;2.57;;
17173;SDS011;8702;48.130;-1.696;2022-08-21T12:12:00;5.47;;;2.50;;
17173;SDS011;8702;48.130;-1.696;2022-08-21T12:14:38;7.63;;;2.63;;
17173;SDS011;8702;48.130;-1.696;2022-08-21T12:17:07;7.37;;;2.53;;
17173;SDS011;8702;48.130;-1.696;2022-08-21T12:19:43;6.43;;;2.13;;
17173;SDS011;8702;48.130;-1.696;2022-08-21T12:22:12;6.27;;;2.33;;
17173;SDS011;8702;48.130;-1.696;2022-08-21T12:24:41;5.80;;;2.13;;
17173;SDS011;8702;48.130;-1.696;2022-08-21T12:27:18;5.10;;;2.40;;
17173;SDS011;8702;48.130;-1.696;2022-08-21T12:29:52;6.43;;;2.23;;
17173;SDS011;8702;48.130;-1.696;2022-08-21T12:32:23;7.03;;;1.70;;
17173;SDS011;8702;48.130;-1.696;2022-08-21T12:34:53;6.93;;;2.40;;
17173;SDS011;8702;48.130;-1.696;2022-08-21T12:37:27;6.30;;;2.10;;
17173;SDS011;8702;48.130;-1.696;2022-08-21T12:40:03;4.47;;;1.57;;
17173;SDS011;8702;48.130;-1.696;2022-08-21T12:42:37;5.90;;;2.50;;
17173;SDS011;8702;48.130;-1.696;2022-08-21T12:45:10;6.53;;;2.23;;
17173;SDS011;8702;48.130;-1.696;2022-08-21T12:47:44;9.93;;;2.60;;
17173;SDS011;8702;48.130;-1.696;2022-08-21T12:50:15;5.30;;;2.23;;
17173;SDS011;8702;48.130;-1.696;2022-08-21T12:52:51;6.60;;;2.03;;
17173;SDS011;8702;48.130;-1.696;2022-08-21T12:55:28;3.47;;;1.73;;
17173;SDS011;8702;48.130;-1.696;2022-08-21T12:57:56;3.73;;;1.87;;
17173;SDS011;8702;48.130;-1.696;2022-08-21T13:00:24;4.17;;;1.83;;
17173;SDS011;8702;48.130;-1.696;2022-08-21T13:02:53;4.93;;;2.53;;
17173;SDS011;8702;48.130;-1.696;2022-08-21T13:05:24;5.80;;;2.43;;
17173;SDS011;8702;48.130;-1.696;2022-08-21T13:07:57;2.87;;;2.10;;
17173;SDS011;8702;48.130;-1.696;2022-08-21T13:10:26;2.60;;;2.03;;
17173;SDS011;8702;48.130;-1.696;2022-08-21T13:12:55;4.73;;;1.90;;
17173;SDS011;8702;48.130;-1.696;2022-08-21T13:15:25;2.33;;;1.60;;
17173;SDS011;8702;48.130;-1.696;2022-08-21T13:17:55;3.17;;;1.63;;
17173;SDS011;8702;48.130;-1.696;2022-08-21T13:20:28;2.53;;;1.60;;
17173;SDS011;8702;48.130;-1.696;2022-08-21T13:22:59;3.13;;;1.30;;
17173;SDS011;8702;48.130;-1.696;2022-08-21T13:25:29;4.83;;;1.60;;
17173;SDS011;8702;48.130;-1.696;2022-08-21T13:28:04;2.13;;;1.50;;
17173;SDS011;8702;48.130;-1.696;2022-08-21T13:30:34;3.07;;;1.60;;
17173;SDS011;8702;48.130;-1.696;2022-08-21T13:33:04;3.53;;;1.40;;
17173;SDS011;8702;48.130;-1.696;2022-08-21T13:35:35;2.30;;;1.50;;
17173;SDS011;8702;48.130;-1.696;2022-08-21T13:38:13;3.13;;;1.73;;
17173;SDS011;8702;48.130;-1.696;2022-08-21T13:40:42;1.53;;;1.20;;
17173;SDS011;8702;48.130;-1.696;2022-08-21T13:43:15;1.73;;;1.27;;
17173;SDS011;8702;48.130;-1.696;2022-08-21T13:45:47;3.77;;;1.47;;
17173;SDS011;8702;48.130;-1.696;2022-08-21T13:48:15;2.33;;;1.73;;
17173;SDS011;8702;48.130;-1.696;2022-08-21T13:50:42;1.93;;;1.53;;
17173;SDS011;8702;48.130;-1.696;2022-08-21T13:53:21;2.30;;;1.40;;
17173;SDS011;8702;48.130;-1.696;2022-08-21T13:55:49;2.40;;;1.23;;
17173;SDS011;8702;48.130;-1.696;2022-08-21T13:58:24;3.00;;;1.33;;
17173;SDS011;8702;48.130;-1.696;2022-08-21T14:00:52;1.57;;;1.20;;
17173;SDS011;8702;48.130;-1.696;2022-08-21T14:03:26;1.27;;;0.93;;
17173;SDS011;8702;48.130;-1.696;2022-08-21T14:05:58;1.10;;;0.90;;
17173;SDS011;8702;48.130;-1.696;2022-08-21T14:08:27;2.57;;;1.10;;
17173;SDS011;8702;48.130;-1.696;2022-08-21T14:10:59;2.17;;;1.13;;
17173;SDS011;8702;48.130;-1.696;2022-08-21T14:13:29;1.40;;;1.13;;
17173;SDS011;8702;48.130;-1.696;2022-08-21T14:16:02;3.33;;;1.50;;
17173;SDS011;8702;48.130;-1.696;2022-08-21T14:18:30;1.97;;;1.23;;
17173;SDS011;8702;48.130;-1.696;2022-08-21T14:21:04;1.63;;;1.27;;
17173;SDS011;8702;48.130;-1.696;2022-08-21T14:23:34;1.63;;;1.30;;
17173;SDS011;8702;48.130;-1.696;2022-08-21T14:26:02;1.37;;;1.23;;
17173;SDS011;8702;48.130;-1.696;2022-08-21T14:28:32;2.10;;;1.27;;
17173;SDS011;8702;48.130;-1.696;2022-08-21T14:31:10;3.43;;;1.30;;
17173;SDS011;8702;48.130;-1.696;2022-08-21T14:33:40;4.27;;;1.70;;
17173;SDS011;8702;48.130;-1.696;2022-08-21T14:36:07;1.63;;;1.30;;
17173;SDS011;8702;48.130;-1.696;2022-08-21T14:38:36;1.53;;;1.20;;
17173;SDS011;8702;48.130;-1.696;2022-08-21T14:41:08;2.47;;;1.10;;
17173;SDS011;8702;48.130;-1.696;2022-08-21T14:43:41;2.00;;;1.30;;
17173;SDS011;8702;48.130;-1.696;2022-08-21T14:46:12;4.13;;;1.30;;
17173;SDS011;8702;48.130;-1.696;2022-08-21T14:48:44;3.33;;;1.40;;
17173;SDS011;8702;48.130;-1.696;2022-08-21T14:51:11;1.33;;;1.00;;
17173;SDS011;8702;48.130;-1.696;2022-08-21T14:53:40;2.40;;;1.20;;
17173;SDS011;8702;48.130;-1.696;2022-08-21T14:56:07;1.20;;;1.10;;
17173;SDS011;8702;48.130;-1.696;2022-08-21T14:58:36;2.27;;;1.13;;
17173;SDS011;8702;48.130;-1.696;2022-08-21T15:01:05;1.50;;;1.13;;